createdAt,value
2019-05-26T00:01:27.669Z,2.90
2019-05-26T00:03:55.399Z,2.17
2019-05-26T00:06:23.032Z,2.70
2019-05-26T00:08:50.651Z,3.50
2019-05-26T00:11:19.401Z,2.70
2019-05-26T00:13:47.036Z,2.83
2019-05-26T00:16:14.647Z,3.10
2019-05-26T00:18:42.310Z,3.43
2019-05-26T00:21:09.937Z,3.30
2019-05-26T00:23:37.639Z,3.00
2019-05-26T00:26:05.392Z,2.63
2019-05-26T00:28:33.168Z,2.77
2019-05-26T00:31:00.882Z,3.10
2019-05-26T00:33:28.534Z,3.00
2019-05-26T00:35:57.353Z,2.50
2019-05-26T00:38:25.071Z,2.80
2019-05-26T00:40:52.769Z,2.60
2019-05-26T00:43:20.396Z,2.73
2019-05-26T00:45:48.024Z,2.83
2019-05-26T00:48:15.659Z,3.20
2019-05-26T00:50:43.263Z,3.37
2019-05-26T00:53:10.861Z,3.17
2019-05-26T00:55:38.479Z,2.80
2019-05-26T00:58:06.147Z,2.93
2019-05-26T01:00:38.502Z,3.17
2019-05-26T01:03:06.209Z,3.20
2019-05-26T01:05:33.864Z,3.07
2019-05-26T01:08:06.158Z,2.80
2019-05-26T01:10:30.896Z,2.87
2019-05-26T01:12:58.486Z,2.70
2019-05-26T01:15:26.133Z,2.90
2019-05-26T01:17:53.725Z,2.63
2019-05-26T01:20:21.334Z,3.40
2019-05-26T01:22:48.975Z,2.70
2019-05-26T01:25:16.602Z,3.03
2019-05-26T01:27:45.328Z,2.30
2019-05-26T01:30:13.783Z,2.40
2019-05-26T01:32:41.492Z,2.60
2019-05-26T01:35:09.091Z,2.30
2019-05-26T01:37:37.804Z,2.60
2019-05-26T01:40:06.461Z,2.43
2019-05-26T01:42:34.081Z,2.60
2019-05-26T01:45:01.713Z,2.17
2019-05-26T01:47:30.520Z,2.60
2019-05-26T01:49:58.166Z,2.60
2019-05-26T01:52:25.787Z,2.83
2019-05-26T01:54:53.441Z,3.07
2019-05-26T01:57:21.036Z,2.67
2019-05-26T01:59:48.732Z,3.20
2019-05-26T02:02:16.330Z,3.07
2019-05-26T02:04:43.912Z,2.60
2019-05-26T02:07:11.518Z,2.67
2019-05-26T02:09:39.054Z,3.00
2019-05-26T02:12:06.676Z,2.50
2019-05-26T02:14:34.383Z,3.17
2019-05-26T02:17:01.988Z,2.87
2019-05-26T02:19:29.611Z,2.83
2019-05-26T02:21:57.258Z,3.10
2019-05-26T02:24:24.860Z,2.70
2019-05-26T02:26:52.497Z,3.20
2019-05-26T02:29:20.113Z,3.30
2019-05-26T02:31:47.763Z,3.27
2019-05-26T02:34:15.417Z,3.37
2019-05-26T02:36:43.028Z,3.20
2019-05-26T02:39:10.655Z,3.13
2019-05-26T02:41:38.260Z,2.90
2019-05-26T02:44:05.896Z,3.73
2019-05-26T02:46:33.713Z,3.83
2019-05-26T02:49:01.378Z,3.67
2019-05-26T02:51:28.961Z,3.50
2019-05-26T02:53:56.613Z,3.47
2019-05-26T02:56:24.321Z,3.47
2019-05-26T02:58:53.059Z,4.37
2019-05-26T03:01:21.804Z,3.60
2019-05-26T03:03:49.555Z,4.10
2019-05-26T03:06:18.282Z,3.60
2019-05-26T03:08:48.794Z,4.17
2019-05-26T03:11:16.958Z,3.80
2019-05-26T03:13:46.437Z,3.23
2019-05-26T03:16:17.075Z,3.53
2019-05-26T03:18:46.478Z,3.80
2019-05-26T03:21:16.916Z,4.23
2019-05-26T03:23:48.151Z,3.83
2019-05-26T03:26:18.592Z,3.93
2019-05-26T03:28:46.191Z,3.60
2019-05-26T03:31:13.842Z,3.20
2019-05-26T03:33:41.434Z,3.63
2019-05-26T03:36:10.683Z,3.77
2019-05-26T03:38:38.490Z,3.60
2019-05-26T03:41:06.156Z,3.87
2019-05-26T03:43:33.799Z,3.40
2019-05-26T03:46:21.015Z,3.50
2019-05-26T03:48:49.332Z,3.67
2019-05-26T03:51:17.053Z,4.20
2019-05-26T03:53:45.743Z,4.67
2019-05-26T03:56:13.374Z,4.10
2019-05-26T03:58:40.989Z,3.60
2019-05-26T04:01:08.613Z,3.30
2019-05-26T04:03:36.200Z,4.10
2019-05-26T04:06:04.376Z,3.90
2019-05-26T04:08:32.012Z,4.10
2019-05-26T04:10:59.637Z,4.27
2019-05-26T04:13:27.275Z,3.97
2019-05-26T04:15:54.903Z,3.70
2019-05-26T04:18:22.519Z,4.40
2019-05-26T04:20:50.134Z,3.90
2019-05-26T04:23:17.744Z,4.00
2019-05-26T04:25:45.351Z,3.80
2019-05-26T04:28:13.003Z,3.57
2019-05-26T04:31:13.847Z,3.90
2019-05-26T04:33:41.478Z,4.20
2019-05-26T04:36:09.060Z,3.90
2019-05-26T04:38:36.731Z,3.73
2019-05-26T04:41:04.368Z,4.87
2019-05-26T04:43:31.983Z,4.30
2019-05-26T04:45:59.606Z,4.77
2019-05-26T04:48:27.198Z,3.83
2019-05-26T04:50:54.775Z,4.33
2019-05-26T04:53:22.379Z,4.27
2019-05-26T04:55:50.000Z,4.37
2019-05-26T04:58:17.661Z,5.07
2019-05-26T05:00:45.258Z,4.80
2019-05-26T05:03:12.872Z,5.00
2019-05-26T05:05:40.477Z,4.20
2019-05-26T05:08:08.073Z,5.03
2019-05-26T05:10:42.372Z,5.33
2019-05-26T05:13:05.135Z,4.80
2019-05-26T05:15:32.832Z,4.10
2019-05-26T05:18:00.450Z,5.50
2019-05-26T05:20:28.112Z,5.30
2019-05-26T05:22:55.766Z,4.70
2019-05-26T05:25:23.382Z,5.00
2019-05-26T05:27:50.993Z,5.13
2019-05-26T05:30:19.298Z,5.17
2019-05-26T05:32:46.922Z,4.57
2019-05-26T05:35:15.236Z,4.90
2019-05-26T05:37:42.940Z,4.70
2019-05-26T05:40:13.088Z,5.27
2019-05-26T05:42:40.718Z,5.30
2019-05-26T05:45:09.153Z,5.30
2019-05-26T05:47:37.781Z,5.60
2019-05-26T05:50:06.577Z,5.47
2019-05-26T05:52:34.202Z,5.33
2019-05-26T05:55:01.828Z,5.60
2019-05-26T05:57:29.566Z,5.50
2019-05-26T05:59:57.186Z,5.13
2019-05-26T06:02:24.812Z,5.80
2019-05-26T06:04:52.608Z,5.20
2019-05-26T06:07:20.229Z,5.33
2019-05-26T06:09:47.826Z,6.03
2019-05-26T06:12:15.503Z,5.47
2019-05-26T06:14:43.147Z,5.33
2019-05-26T06:17:10.786Z,5.33
2019-05-26T06:19:39.503Z,5.23
2019-05-26T06:22:07.109Z,5.27
2019-05-26T06:24:34.732Z,5.40
2019-05-26T06:27:02.352Z,5.30
2019-05-26T06:29:30.022Z,5.37
2019-05-26T06:31:58.282Z,5.30
2019-05-26T06:34:26.144Z,6.37
2019-05-26T06:36:53.860Z,5.60
2019-05-26T06:39:21.513Z,5.43
2019-05-26T06:41:49.113Z,5.03
2019-05-26T06:44:16.730Z,5.50
2019-05-26T06:46:44.427Z,5.10
2019-05-26T06:49:12.051Z,5.37
2019-05-26T06:51:39.738Z,5.87
2019-05-26T06:54:07.354Z,5.90
2019-05-26T06:56:35.011Z,6.30
2019-05-26T06:59:03.134Z,5.77
2019-05-26T07:01:30.904Z,5.27
2019-05-26T07:03:58.573Z,5.80
2019-05-26T07:06:26.221Z,6.13
2019-05-26T07:08:53.844Z,6.20
2019-05-26T07:11:21.475Z,5.23
2019-05-26T07:13:49.179Z,6.13
2019-05-26T07:16:18.019Z,5.80
2019-05-26T07:18:45.636Z,6.27
2019-05-26T07:21:13.250Z,5.90
2019-05-26T07:23:40.895Z,5.67
2019-05-26T07:26:08.524Z,5.33
2019-05-26T07:28:36.230Z,6.03
2019-05-26T07:31:03.911Z,7.00
2019-05-26T07:33:31.545Z,5.50
2019-05-26T07:35:59.196Z,5.43
2019-05-26T07:38:26.940Z,5.27
2019-05-26T07:40:54.570Z,7.33
2019-05-26T07:43:22.280Z,6.10
2019-05-26T07:45:49.953Z,6.93
2019-05-26T07:48:17.582Z,6.60
2019-05-26T07:50:45.269Z,6.23
2019-05-26T07:53:12.945Z,6.20
2019-05-26T07:55:40.605Z,7.23
2019-05-26T07:58:08.326Z,6.77
2019-05-26T08:00:35.998Z,6.43
2019-05-26T08:03:03.622Z,7.57
2019-05-26T08:05:31.234Z,8.43
2019-05-26T08:08:12.215Z,7.63
2019-05-26T08:10:28.436Z,7.97
2019-05-26T08:12:56.072Z,8.20
2019-05-26T08:15:23.804Z,7.67
2019-05-26T14:29:48.808Z,2.70
2019-05-26T14:32:16.367Z,2.60
2019-05-26T14:34:44.028Z,2.50
2019-05-26T14:37:11.702Z,2.77
2019-05-26T14:39:39.353Z,2.50
2019-05-26T14:42:07.037Z,1.93
2019-05-26T14:44:34.711Z,2.27
2019-05-26T14:47:02.789Z,2.23
2019-05-26T14:49:30.430Z,2.65
2019-05-26T14:51:58.051Z,2.50
2019-05-26T14:54:25.760Z,2.13
2019-05-26T14:56:53.399Z,2.40
2019-05-26T14:59:21.107Z,2.03
2019-05-26T15:01:48.746Z,2.00
2019-05-26T15:04:16.422Z,2.17
2019-05-26T15:06:44.068Z,2.52
2019-05-26T15:09:24.420Z,2.05
2019-05-26T15:11:41.152Z,2.08
2019-05-26T15:14:08.811Z,2.07
2019-05-26T15:16:36.445Z,1.72
2019-05-26T15:19:04.086Z,2.27
2019-05-26T15:21:31.848Z,2.30
2019-05-26T15:23:59.542Z,1.80
2019-05-26T15:26:27.352Z,2.37
2019-05-26T15:28:54.992Z,1.60
2019-05-26T15:31:22.645Z,2.08
2019-05-26T15:33:50.269Z,2.15
2019-05-26T15:36:17.974Z,2.10
2019-05-26T15:38:45.644Z,2.00
2019-05-26T15:41:13.349Z,2.02
2019-05-26T15:43:41.010Z,1.90
2019-05-26T15:46:23.902Z,1.80
2019-05-26T15:48:41.713Z,1.98
2019-05-26T15:51:09.593Z,1.60
2019-05-26T15:53:37.204Z,1.75
2019-05-26T15:56:04.888Z,1.50
2019-05-26T15:58:32.504Z,1.98
2019-05-26T16:01:00.853Z,1.80
2019-05-26T16:03:28.529Z,1.50
2019-05-26T16:05:56.187Z,1.50
2019-05-26T16:08:23.865Z,1.80
2019-05-26T16:10:51.497Z,1.50
2019-05-26T16:13:19.198Z,1.60
2019-05-26T16:15:46.840Z,1.62
2019-05-26T16:18:14.485Z,1.67
2019-05-26T16:20:42.180Z,1.95
2019-05-26T16:23:09.803Z,1.60
2019-05-26T16:25:37.424Z,1.65
2019-05-26T16:28:05.003Z,1.52
2019-05-26T16:30:33.738Z,1.70
2019-05-26T16:33:01.483Z,1.40
2019-05-26T16:35:29.064Z,1.65
2019-05-26T16:37:56.730Z,1.77
2019-05-26T16:40:24.361Z,1.52
2019-05-26T16:42:52.159Z,1.37
2019-05-26T16:45:20.108Z,1.40
2019-05-26T16:47:47.751Z,2.33
2019-05-26T16:50:16.107Z,2.02
2019-05-26T16:52:44.960Z,1.62
2019-05-26T16:55:12.906Z,2.02
2019-05-26T16:57:41.675Z,1.55
2019-05-26T17:00:09.686Z,2.10
2019-05-26T17:02:37.405Z,2.00
2019-05-26T17:05:05.791Z,1.50
2019-05-26T17:07:33.665Z,1.40
2019-05-26T17:10:01.404Z,1.95
2019-05-26T17:12:29.142Z,1.82
2019-05-26T17:14:56.825Z,1.50
2019-05-26T17:17:24.463Z,1.73
2019-05-26T17:19:52.867Z,1.50
2019-05-26T17:22:20.732Z,2.27
2019-05-26T17:24:48.438Z,2.55
2019-05-26T17:27:16.127Z,1.80
2019-05-26T17:29:43.765Z,1.87
2019-05-26T17:32:11.396Z,1.90
2019-05-26T17:34:39.056Z,1.60
2019-05-26T17:37:06.688Z,1.80
2019-05-26T17:39:34.684Z,1.95
2019-05-26T17:42:02.295Z,1.70
2019-05-26T17:44:29.967Z,1.90
2019-05-26T17:46:58.697Z,1.77
2019-05-26T17:49:26.357Z,1.80
2019-05-26T17:51:53.982Z,1.70
2019-05-26T17:54:21.649Z,1.97
2019-05-26T17:56:49.319Z,1.60
2019-05-26T17:59:17.072Z,1.62
2019-05-26T18:01:44.746Z,1.52
2019-05-26T18:04:12.466Z,1.50
2019-05-26T18:06:40.129Z,1.67
2019-05-26T18:09:07.814Z,1.50
2019-05-26T18:11:35.585Z,1.70
2019-05-26T18:14:03.778Z,1.40
2019-05-26T18:16:31.477Z,1.70
2019-05-26T18:18:59.119Z,1.90
2019-05-26T18:21:26.849Z,2.10
2019-05-26T18:23:54.518Z,1.75
2019-05-26T18:26:22.215Z,1.70
2019-05-26T18:28:49.941Z,1.90
2019-05-26T18:31:17.618Z,2.05
2019-05-26T18:33:45.357Z,1.85
2019-05-26T18:36:13.036Z,1.77
2019-05-26T18:38:40.691Z,1.50
2019-05-26T18:41:08.353Z,1.70
2019-05-26T18:43:36.127Z,1.50
2019-05-26T18:46:03.901Z,1.50
2019-05-26T18:48:31.610Z,2.27
2019-05-26T18:50:59.381Z,1.80
2019-05-26T18:53:29.629Z,1.60
2019-05-26T18:55:56.578Z,2.05
2019-05-26T18:58:24.275Z,1.55
2019-05-26T19:00:51.885Z,1.80
2019-05-26T19:03:19.539Z,1.93
2019-05-26T19:05:47.212Z,1.70
2019-05-26T19:08:14.986Z,1.70
2019-05-26T19:10:42.748Z,1.83
2019-05-26T19:13:10.822Z,1.80
2019-05-26T19:15:38.605Z,1.72
2019-05-26T19:18:19.483Z,1.67
2019-05-26T19:20:35.880Z,1.70
2019-05-26T19:23:03.570Z,1.33
2019-05-26T19:25:31.341Z,1.73
2019-05-26T19:27:59.030Z,1.57
2019-05-26T19:30:26.739Z,2.00
2019-05-26T19:32:54.607Z,1.55
2019-05-26T19:35:22.212Z,1.72
2019-05-26T19:37:49.895Z,1.65
2019-05-26T19:40:17.865Z,1.92
2019-05-26T19:42:45.558Z,2.17
2019-05-26T19:45:13.598Z,1.67
2019-05-26T19:47:41.321Z,1.60
2019-05-26T19:50:10.481Z,1.63
2019-05-26T19:52:38.152Z,1.70
2019-05-26T19:55:06.328Z,1.70
2019-05-26T19:57:34.062Z,1.70
2019-05-26T20:00:01.763Z,1.50
2019-05-26T20:02:29.557Z,1.70
2019-05-26T20:04:57.280Z,2.10
2019-05-26T20:07:24.969Z,1.80
2019-05-26T20:09:52.745Z,3.10
2019-05-26T20:12:20.408Z,2.00
2019-05-26T20:14:48.153Z,2.12
2019-05-26T20:17:15.878Z,2.22
2019-05-26T20:19:43.739Z,1.73
2019-05-26T20:22:11.440Z,4.28
2019-05-26T20:24:39.219Z,8.07
2019-05-26T20:27:06.804Z,5.20
2019-05-26T20:29:34.470Z,3.00
2019-05-26T20:32:02.113Z,2.45
2019-05-26T20:34:29.803Z,6.37
2019-05-26T20:36:57.449Z,11.17
2019-05-26T20:39:25.102Z,13.23
2019-05-26T20:41:52.702Z,11.30
2019-05-26T20:44:20.454Z,8.45
2019-05-26T20:46:48.071Z,11.43
2019-05-26T20:49:16.548Z,3.30
2019-05-26T20:51:44.180Z,2.03
2019-05-26T20:54:11.902Z,2.00
2019-05-26T20:56:39.496Z,2.20
2019-05-26T20:59:07.240Z,2.40
2019-05-26T21:01:34.909Z,2.00
2019-05-26T21:04:06.531Z,2.20
2019-05-26T21:06:34.183Z,2.17
2019-05-26T21:09:01.946Z,1.92
2019-05-26T21:11:31.445Z,1.83
2019-05-26T21:13:59.089Z,2.40
2019-05-26T21:16:26.741Z,2.20
2019-05-26T21:18:54.345Z,1.90
2019-05-26T21:21:21.979Z,2.83
2019-05-26T21:23:49.637Z,2.17
2019-05-26T21:26:17.451Z,1.90
2019-05-26T21:28:45.216Z,2.10
2019-05-26T21:31:12.944Z,2.97
2019-05-26T21:33:40.746Z,2.33
2019-05-26T21:36:08.392Z,2.30
2019-05-26T21:38:36.033Z,9.90
2019-05-26T21:41:03.716Z,2.25
2019-05-26T21:43:31.449Z,3.57
2019-05-26T21:45:59.083Z,2.00
2019-05-26T21:48:26.754Z,1.70
2019-05-26T21:50:54.461Z,2.00
2019-05-26T21:53:22.261Z,1.80
2019-05-26T21:55:49.876Z,1.60
2019-05-26T21:58:17.506Z,2.33
2019-05-26T22:00:46.784Z,2.27
2019-05-26T22:03:15.509Z,2.00
2019-05-26T22:05:43.160Z,1.87
2019-05-26T22:08:10.821Z,3.23
2019-05-26T22:10:38.458Z,2.20
2019-05-26T22:13:06.083Z,1.90
2019-05-26T22:15:33.738Z,3.10
2019-05-26T22:18:01.355Z,2.30
2019-05-26T22:20:29.023Z,2.10
2019-05-26T22:22:56.809Z,2.10
2019-05-26T22:25:24.428Z,1.92
2019-05-26T22:27:52.124Z,2.07
2019-05-26T22:30:19.777Z,2.02
2019-05-26T22:32:47.407Z,1.90
2019-05-26T22:35:15.068Z,2.10
2019-05-26T22:37:42.697Z,2.07
2019-05-26T22:40:11.333Z,2.02
2019-05-26T22:42:39.007Z,2.20
2019-05-26T22:45:08.568Z,1.73
2019-05-26T22:47:36.348Z,2.40
2019-05-26T22:50:04.216Z,1.90
2019-05-26T22:52:31.815Z,1.85
2019-05-26T22:54:59.485Z,2.40
2019-05-26T22:57:27.102Z,2.17
2019-05-26T22:59:54.737Z,2.43
2019-05-26T23:02:22.389Z,2.12
2019-05-26T23:04:50.337Z,2.27
2019-05-26T23:07:17.934Z,2.50
2019-05-26T23:09:45.676Z,2.13
2019-05-26T23:12:13.312Z,2.60
2019-05-26T23:14:40.950Z,2.40
2019-05-26T23:17:08.583Z,2.73
2019-05-26T23:19:36.169Z,2.50
2019-05-26T23:22:03.828Z,2.40
2019-05-26T23:24:32.595Z,2.60
2019-05-26T23:27:01.135Z,2.40
2019-05-26T23:29:28.806Z,3.02
2019-05-26T23:31:56.391Z,3.43
2019-05-26T23:34:24.023Z,3.35
2019-05-26T23:36:51.967Z,2.90
2019-05-26T23:39:19.592Z,2.83
2019-05-26T23:41:47.235Z,2.83
2019-05-26T23:44:14.845Z,3.07
2019-05-26T23:46:42.496Z,2.93
2019-05-26T23:49:10.121Z,2.93
2019-05-26T23:51:37.792Z,3.20
2019-05-26T23:54:05.414Z,2.77
2019-05-26T23:56:33.086Z,3.20
2019-05-26T23:59:00.692Z,3.30
